Airfield :
LOGIN :

Register | Disclaimer

   EN    FR    IT 

 










Legend :    VFR   Marginal VFR   IFR   Intensive IFR   Very Intensive IFR
Visi :
Ceiling :
>= 8 km
>= 3000ft
5 to 8 km
1000 to 3000 ft
1500m to 5 km
500 to 1000 ft
800 to 1500m
200 to 500 ft
< 800m
< 200 ft
Symbols :   Thunderstorms  Fog  Heavy snow  Heavy precipitations  Wind > 20 kt
SIGMETs :     Misc.  Thunderstorms  Icing  Turbulence  Mountain Waves  Volcanic Ashes







- Airport Elevation : 22 ft
- IATA code : TUN


DTTA - Tunis Carthage

CURRENT METAR :
  • 232200Z 02004KT 350V050 9999 FEW030 16/13 Q1011

EXPIRED METARs :
  • 232130Z 03003KT 360V150 9999 FEW030 16/12 Q1010
  • 232100Z 04004KT 010V070 9999 FEW030 16/12 Q1010
  • 232030Z 05005KT 010V080 9999 FEW030 17/12 Q1010
  • 232000Z 04007KT 360V080 9999 FEW030 17/12 Q1009
  • 231930Z 04007KT 010V080 9999 FEW030 17/12 Q1009

TAF TAF DTTA
Valid from the 23 at 18:00 until the 24 at 18:00 UTC


231700Z 2318/2418 36012KT 9999 FEW030
BECMG 2319/2321 30005KT
BECMG 2400/2402 VRB03KT 5000 FEW016
BECMG 2406/2408 36015KT 9999 SCT026
No reported NOTAMs for that airfield.



MET'MAP, your aeronautical weather chart ! - Copyright ORBIFLY December 2007 - Disclaimer

ORBIFLY MET'MAP TEAM :

Programming & Development : Alexandra Zaïnal
Concept & Development : Baudouin d'Aumeries
Co-Development & Prog : Marc-Olivier Méhu
Technical & hardware support : Manuel Goepfert

Contact : metmap@orbifly.com




SOURCES & CREDITS :

   NOAA